sensor_id;sensor_type;location;lat;lon;timestamp;P1;durP1;ratioP1;P2;durP2;ratioP2
9306;SDS011;4691;47.612;7.610;2023-08-17T00:04:36;26.77;;;16.17;;
9306;SDS011;4691;47.612;7.610;2023-08-17T00:07:01;18.30;;;14.02;;
9306;SDS011;4691;47.612;7.610;2023-08-17T00:09:29;22.77;;;14.93;;
9306;SDS011;4691;47.612;7.610;2023-08-17T00:11:57;20.05;;;14.85;;
9306;SDS011;4691;47.612;7.610;2023-08-17T00:14:22;23.17;;;15.48;;
9306;SDS011;4691;47.612;7.610;2023-08-17T00:16:49;21.45;;;15.95;;
9306;SDS011;4691;47.612;7.610;2023-08-17T00:19:15;26.63;;;16.35;;
9306;SDS011;4691;47.612;7.610;2023-08-17T00:21:40;29.15;;;16.63;;
9306;SDS011;4691;47.612;7.610;2023-08-17T00:30:46;24.50;;;15.38;;
9306;SDS011;4691;47.612;7.610;2023-08-17T00:33:15;22.27;;;16.67;;
9306;SDS011;4691;47.612;7.610;2023-08-17T00:35:43;26.95;;;15.48;;
9306;SDS011;4691;47.612;7.610;2023-08-17T00:38:10;25.10;;;16.77;;
9306;SDS011;4691;47.612;7.610;2023-08-17T00:40:36;20.55;;;14.90;;
9306;SDS011;4691;47.612;7.610;2023-08-17T00:43:01;23.13;;;15.60;;
9306;SDS011;4691;47.612;7.610;2023-08-17T00:45:27;21.63;;;15.38;;
9306;SDS011;4691;47.612;7.610;2023-08-17T00:47:54;22.63;;;14.35;;
9306;SDS011;4691;47.612;7.610;2023-08-17T00:50:22;19.90;;;14.63;;
9306;SDS011;4691;47.612;7.610;2023-08-17T00:52:50;22.27;;;14.20;;
9306;SDS011;4691;47.612;7.610;2023-08-17T00:55:17;21.85;;;14.80;;
9306;SDS011;4691;47.612;7.610;2023-08-17T00:57:42;22.05;;;15.02;;
9306;SDS011;4691;47.612;7.610;2023-08-17T01:00:10;20.70;;;14.75;;
9306;SDS011;4691;47.612;7.610;2023-08-17T01:02:40;22.88;;;14.82;;
9306;SDS011;4691;47.612;7.610;2023-08-17T01:05:06;23.08;;;15.32;;
9306;SDS011;4691;47.612;7.610;2023-08-17T01:07:32;28.35;;;15.52;;
9306;SDS011;4691;47.612;7.610;2023-08-17T01:09:57;24.92;;;14.55;;
9306;SDS011;4691;47.612;7.610;2023-08-17T01:12:30;20.75;;;14.75;;
9306;SDS011;4691;47.612;7.610;2023-08-17T01:17:44;21.23;;;15.23;;
9306;SDS011;4691;47.612;7.610;2023-08-17T01:20:17;23.40;;;15.48;;
9306;SDS011;4691;47.612;7.610;2023-08-17T01:22:48;23.83;;;16.13;;
9306;SDS011;4691;47.612;7.610;2023-08-17T01:25:16;26.13;;;17.48;;
9306;SDS011;4691;47.612;7.610;2023-08-17T01:27:43;23.67;;;16.30;;
9306;SDS011;4691;47.612;7.610;2023-08-17T01:30:15;24.55;;;16.65;;
9306;SDS011;4691;47.612;7.610;2023-08-17T01:32:50;23.48;;;16.38;;
9306;SDS011;4691;47.612;7.610;2023-08-17T01:35:28;23.38;;;16.27;;
9306;SDS011;4691;47.612;7.610;2023-08-17T01:38:00;26.33;;;17.67;;
9306;SDS011;4691;47.612;7.610;2023-08-17T01:40:31;20.45;;;15.15;;
9306;SDS011;4691;47.612;7.610;2023-08-17T01:43:01;23.48;;;16.48;;
9306;SDS011;4691;47.612;7.610;2023-08-17T01:45:27;29.80;;;16.90;;
9306;SDS011;4691;47.612;7.610;2023-08-17T01:47:54;28.98;;;15.35;;
9306;SDS011;4691;47.612;7.610;2023-08-17T01:50:20;24.55;;;15.70;;
9306;SDS011;4691;47.612;7.610;2023-08-17T01:52:45;24.55;;;15.55;;
9306;SDS011;4691;47.612;7.610;2023-08-17T01:55:11;24.60;;;15.98;;
9306;SDS011;4691;47.612;7.610;2023-08-17T01:57:36;23.17;;;16.00;;
9306;SDS011;4691;47.612;7.610;2023-08-17T02:00:02;24.70;;;15.23;;
9306;SDS011;4691;47.612;7.610;2023-08-17T02:02:30;24.08;;;15.25;;
9306;SDS011;4691;47.612;7.610;2023-08-17T02:04:55;25.48;;;15.25;;
9306;SDS011;4691;47.612;7.610;2023-08-17T02:07:20;22.17;;;14.98;;
9306;SDS011;4691;47.612;7.610;2023-08-17T02:09:46;23.65;;;14.93;;
9306;SDS011;4691;47.612;7.610;2023-08-17T02:12:11;21.48;;;14.10;;
9306;SDS011;4691;47.612;7.610;2023-08-17T02:14:36;19.70;;;14.13;;
9306;SDS011;4691;47.612;7.610;2023-08-17T02:19:32;24.23;;;14.38;;
9306;SDS011;4691;47.612;7.610;2023-08-17T02:21:58;19.65;;;14.23;;
9306;SDS011;4691;47.612;7.610;2023-08-17T02:24:26;24.05;;;14.18;;
9306;SDS011;4691;47.612;7.610;2023-08-17T02:26:51;26.92;;;15.20;;
9306;SDS011;4691;47.612;7.610;2023-08-17T02:29:19;20.00;;;14.18;;
9306;SDS011;4691;47.612;7.610;2023-08-17T02:31:45;23.65;;;14.10;;
9306;SDS011;4691;47.612;7.610;2023-08-17T02:34:10;18.98;;;13.98;;
9306;SDS011;4691;47.612;7.610;2023-08-17T02:36:38;25.38;;;13.80;;
9306;SDS011;4691;47.612;7.610;2023-08-17T02:39:09;19.10;;;13.23;;
9306;SDS011;4691;47.612;7.610;2023-08-17T02:41:37;24.15;;;13.77;;
9306;SDS011;4691;47.612;7.610;2023-08-17T02:44:08;20.30;;;13.07;;
9306;SDS011;4691;47.612;7.610;2023-08-17T02:46:34;21.23;;;13.75;;
9306;SDS011;4691;47.612;7.610;2023-08-17T02:48:59;20.45;;;13.52;;
9306;SDS011;4691;47.612;7.610;2023-08-17T02:51:25;22.35;;;13.80;;
9306;SDS011;4691;47.612;7.610;2023-08-17T02:53:50;27.85;;;14.60;;
9306;SDS011;4691;47.612;7.610;2023-08-17T02:56:15;21.67;;;13.70;;
9306;SDS011;4691;47.612;7.610;2023-08-17T02:58:41;19.35;;;14.25;;
9306;SDS011;4691;47.612;7.610;2023-08-17T03:01:07;23.90;;;13.63;;
9306;SDS011;4691;47.612;7.610;2023-08-17T03:03:37;21.70;;;13.82;;
9306;SDS011;4691;47.612;7.610;2023-08-17T03:06:05;18.90;;;13.00;;
9306;SDS011;4691;47.612;7.610;2023-08-17T03:08:33;25.65;;;14.90;;
9306;SDS011;4691;47.612;7.610;2023-08-17T03:11:01;21.20;;;14.50;;
9306;SDS011;4691;47.612;7.610;2023-08-17T03:13:27;26.70;;;15.40;;
9306;SDS011;4691;47.612;7.610;2023-08-17T03:15:54;21.70;;;14.30;;
9306;SDS011;4691;47.612;7.610;2023-08-17T03:18:19;21.58;;;11.98;;
9306;SDS011;4691;47.612;7.610;2023-08-17T03:20:45;22.70;;;13.70;;
9306;SDS011;4691;47.612;7.610;2023-08-17T03:23:11;22.85;;;14.35;;
9306;SDS011;4691;47.612;7.610;2023-08-17T03:25:39;22.63;;;13.48;;
9306;SDS011;4691;47.612;7.610;2023-08-17T03:28:04;22.50;;;14.68;;
9306;SDS011;4691;47.612;7.610;2023-08-17T03:30:30;21.35;;;13.93;;
9306;SDS011;4691;47.612;7.610;2023-08-17T03:32:57;25.15;;;13.18;;
9306;SDS011;4691;47.612;7.610;2023-08-17T03:35:23;20.05;;;13.82;;
9306;SDS011;4691;47.612;7.610;2023-08-17T03:37:48;20.42;;;13.45;;
9306;SDS011;4691;47.612;7.610;2023-08-17T03:40:16;22.45;;;13.48;;
9306;SDS011;4691;47.612;7.610;2023-08-17T03:42:42;23.02;;;13.55;;
9306;SDS011;4691;47.612;7.610;2023-08-17T03:45:10;24.00;;;14.13;;
9306;SDS011;4691;47.612;7.610;2023-08-17T03:47:35;25.98;;;14.32;;
9306;SDS011;4691;47.612;7.610;2023-08-17T03:50:01;21.38;;;13.45;;
9306;SDS011;4691;47.612;7.610;2023-08-17T03:52:26;21.27;;;13.40;;
9306;SDS011;4691;47.612;7.610;2023-08-17T03:54:51;19.75;;;13.27;;
9306;SDS011;4691;47.612;7.610;2023-08-17T03:57:17;24.58;;;13.70;;
9306;SDS011;4691;47.612;7.610;2023-08-17T03:59:43;23.52;;;14.98;;
9306;SDS011;4691;47.612;7.610;2023-08-17T04:02:11;21.73;;;13.90;;
9306;SDS011;4691;47.612;7.610;2023-08-17T04:04:36;18.38;;;13.38;;
9306;SDS011;4691;47.612;7.610;2023-08-17T04:07:02;23.00;;;13.77;;
9306;SDS011;4691;47.612;7.610;2023-08-17T04:09:27;20.70;;;14.07;;
9306;SDS011;4691;47.612;7.610;2023-08-17T04:11:53;25.60;;;14.23;;
9306;SDS011;4691;47.612;7.610;2023-08-17T04:14:22;24.80;;;15.13;;
9306;SDS011;4691;47.612;7.610;2023-08-17T04:16:48;27.70;;;16.45;;
9306;SDS011;4691;47.612;7.610;2023-08-17T04:19:13;24.23;;;14.60;;
9306;SDS011;4691;47.612;7.610;2023-08-17T04:21:39;25.20;;;15.73;;
9306;SDS011;4691;47.612;7.610;2023-08-17T04:24:04;28.20;;;15.35;;
9306;SDS011;4691;47.612;7.610;2023-08-17T04:26:30;26.92;;;15.25;;
9306;SDS011;4691;47.612;7.610;2023-08-17T04:28:55;22.25;;;15.02;;
9306;SDS011;4691;47.612;7.610;2023-08-17T04:31:20;27.42;;;15.90;;
9306;SDS011;4691;47.612;7.610;2023-08-17T04:33:46;27.35;;;14.93;;
9306;SDS011;4691;47.612;7.610;2023-08-17T04:36:11;26.92;;;15.68;;
9306;SDS011;4691;47.612;7.610;2023-08-17T04:38:36;30.52;;;15.07;;
9306;SDS011;4691;47.612;7.610;2023-08-17T04:41:02;27.35;;;16.33;;
9306;SDS011;4691;47.612;7.610;2023-08-17T04:43:27;26.08;;;15.75;;
9306;SDS011;4691;47.612;7.610;2023-08-17T04:45:52;28.92;;;15.88;;
9306;SDS011;4691;47.612;7.610;2023-08-17T04:48:18;25.08;;;15.00;;
9306;SDS011;4691;47.612;7.610;2023-08-17T04:50:43;27.75;;;15.05;;
9306;SDS011;4691;47.612;7.610;2023-08-17T04:53:09;25.25;;;14.77;;
9306;SDS011;4691;47.612;7.610;2023-08-17T04:55:35;26.52;;;15.82;;
9306;SDS011;4691;47.612;7.610;2023-08-17T04:58:00;26.92;;;15.70;;
9306;SDS011;4691;47.612;7.610;2023-08-17T05:00:25;26.73;;;15.18;;
9306;SDS011;4691;47.612;7.610;2023-08-17T05:02:53;28.30;;;15.52;;
9306;SDS011;4691;47.612;7.610;2023-08-17T05:05:19;26.20;;;15.10;;
9306;SDS011;4691;47.612;7.610;2023-08-17T05:07:48;23.83;;;15.27;;
9306;SDS011;4691;47.612;7.610;2023-08-17T05:10:14;33.88;;;15.95;;
9306;SDS011;4691;47.612;7.610;2023-08-17T05:12:39;31.13;;;17.00;;
9306;SDS011;4691;47.612;7.610;2023-08-17T05:15:04;31.10;;;17.15;;
9306;SDS011;4691;47.612;7.610;2023-08-17T05:17:30;31.48;;;17.48;;
9306;SDS011;4691;47.612;7.610;2023-08-17T05:19:55;37.20;;;18.08;;
9306;SDS011;4691;47.612;7.610;2023-08-17T05:22:21;44.90;;;19.10;;
9306;SDS011;4691;47.612;7.610;2023-08-17T05:24:46;38.88;;;18.80;;
9306;SDS011;4691;47.612;7.610;2023-08-17T05:27:12;37.30;;;19.38;;
9306;SDS011;4691;47.612;7.610;2023-08-17T05:29:37;53.42;;;22.27;;
9306;SDS011;4691;47.612;7.610;2023-08-17T05:32:02;55.05;;;22.65;;
9306;SDS011;4691;47.612;7.610;2023-08-17T05:34:28;51.60;;;22.25;;
9306;SDS011;4691;47.612;7.610;2023-08-17T05:36:53;47.83;;;21.40;;
9306;SDS011;4691;47.612;7.610;2023-08-17T05:39:18;52.10;;;22.73;;
9306;SDS011;4691;47.612;7.610;2023-08-17T05:41:43;36.45;;;19.65;;
9306;SDS011;4691;47.612;7.610;2023-08-17T05:44:09;38.15;;;19.08;;
9306;SDS011;4691;47.612;7.610;2023-08-17T05:46:35;34.00;;;17.98;;
9306;SDS011;4691;47.612;7.610;2023-08-17T05:49:01;35.20;;;17.80;;
9306;SDS011;4691;47.612;7.610;2023-08-17T05:51:26;42.42;;;17.38;;
9306;SDS011;4691;47.612;7.610;2023-08-17T05:53:52;34.47;;;18.08;;
9306;SDS011;4691;47.612;7.610;2023-08-17T05:56:17;44.25;;;20.02;;
9306;SDS011;4691;47.612;7.610;2023-08-17T05:58:42;40.00;;;18.17;;
9306;SDS011;4691;47.612;7.610;2023-08-17T06:01:08;42.92;;;18.48;;
9306;SDS011;4691;47.612;7.610;2023-08-17T06:03:35;46.90;;;22.83;;
9306;SDS011;4691;47.612;7.610;2023-08-17T06:06:01;51.90;;;23.70;;
9306;SDS011;4691;47.612;7.610;2023-08-17T06:08:27;49.10;;;20.85;;
9306;SDS011;4691;47.612;7.610;2023-08-17T06:10:52;48.28;;;22.13;;
9306;SDS011;4691;47.612;7.610;2023-08-17T06:13:18;56.72;;;22.40;;
9306;SDS011;4691;47.612;7.610;2023-08-17T06:15:43;59.65;;;22.65;;
9306;SDS011;4691;47.612;7.610;2023-08-17T06:18:08;51.40;;;22.95;;
9306;SDS011;4691;47.612;7.610;2023-08-17T06:20:34;59.88;;;24.65;;
9306;SDS011;4691;47.612;7.610;2023-08-17T06:22:59;45.42;;;21.35;;
9306;SDS011;4691;47.612;7.610;2023-08-17T06:25:24;58.83;;;24.25;;
9306;SDS011;4691;47.612;7.610;2023-08-17T06:27:50;63.70;;;26.95;;
9306;SDS011;4691;47.612;7.610;2023-08-17T06:30:16;66.82;;;26.92;;
9306;SDS011;4691;47.612;7.610;2023-08-17T06:32:42;69.05;;;28.05;;
9306;SDS011;4691;47.612;7.610;2023-08-17T06:35:07;76.00;;;28.08;;
9306;SDS011;4691;47.612;7.610;2023-08-17T06:37:33;70.53;;;29.25;;
9306;SDS011;4691;47.612;7.610;2023-08-17T06:39:58;67.18;;;28.50;;
9306;SDS011;4691;47.612;7.610;2023-08-17T06:42:23;71.72;;;28.42;;
9306;SDS011;4691;47.612;7.610;2023-08-17T06:44:49;69.20;;;25.90;;
9306;SDS011;4691;47.612;7.610;2023-08-17T06:47:14;70.03;;;27.95;;
9306;SDS011;4691;47.612;7.610;2023-08-17T06:49:39;63.47;;;25.80;;
9306;SDS011;4691;47.612;7.610;2023-08-17T06:52:05;63.75;;;25.30;;
9306;SDS011;4691;47.612;7.610;2023-08-17T06:54:30;57.95;;;25.80;;
9306;SDS011;4691;47.612;7.610;2023-08-17T06:56:57;76.18;;;27.92;;
9306;SDS011;4691;47.612;7.610;2023-08-17T06:59:22;59.67;;;25.85;;
9306;SDS011;4691;47.612;7.610;2023-08-17T07:01:48;62.08;;;26.98;;
9306;SDS011;4691;47.612;7.610;2023-08-17T07:04:13;67.95;;;27.23;;
9306;SDS011;4691;47.612;7.610;2023-08-17T07:06:38;72.35;;;28.52;;
9306;SDS011;4691;47.612;7.610;2023-08-17T07:09:05;63.83;;;28.42;;
9306;SDS011;4691;47.612;7.610;2023-08-17T07:11:31;76.55;;;29.85;;
9306;SDS011;4691;47.612;7.610;2023-08-17T07:13:56;70.80;;;29.80;;
9306;SDS011;4691;47.612;7.610;2023-08-17T07:16:22;77.15;;;30.98;;
9306;SDS011;4691;47.612;7.610;2023-08-17T07:18:47;79.38;;;31.70;;
9306;SDS011;4691;47.612;7.610;2023-08-17T07:21:12;79.32;;;31.80;;
9306;SDS011;4691;47.612;7.610;2023-08-17T07:23:37;77.53;;;30.92;;
9306;SDS011;4691;47.612;7.610;2023-08-17T07:26:03;69.32;;;29.20;;
9306;SDS011;4691;47.612;7.610;2023-08-17T07:28:28;78.30;;;32.08;;
9306;SDS011;4691;47.612;7.610;2023-08-17T07:30:53;83.00;;;33.47;;
9306;SDS011;4691;47.612;7.610;2023-08-17T07:33:19;84.97;;;32.28;;
9306;SDS011;4691;47.612;7.610;2023-08-17T07:35:44;85.15;;;35.13;;
9306;SDS011;4691;47.612;7.610;2023-08-17T07:38:09;76.80;;;31.52;;
9306;SDS011;4691;47.612;7.610;2023-08-17T07:40:34;77.70;;;33.22;;
9306;SDS011;4691;47.612;7.610;2023-08-17T07:43:00;80.57;;;35.10;;
9306;SDS011;4691;47.612;7.610;2023-08-17T07:45:26;82.60;;;33.90;;
9306;SDS011;4691;47.612;7.610;2023-08-17T07:47:52;73.30;;;30.48;;
9306;SDS011;4691;47.612;7.610;2023-08-17T07:50:17;67.60;;;29.73;;
9306;SDS011;4691;47.612;7.610;2023-08-17T07:52:42;72.22;;;32.58;;
9306;SDS011;4691;47.612;7.610;2023-08-17T07:55:08;66.38;;;27.73;;
9306;SDS011;4691;47.612;7.610;2023-08-17T07:57:33;71.70;;;28.88;;
9306;SDS011;4691;47.612;7.610;2023-08-17T07:59:58;86.07;;;29.50;;
9306;SDS011;4691;47.612;7.610;2023-08-17T08:02:24;67.38;;;27.95;;
9306;SDS011;4691;47.612;7.610;2023-08-17T08:04:49;62.28;;;27.65;;
9306;SDS011;4691;47.612;7.610;2023-08-17T08:07:15;63.53;;;28.73;;
9306;SDS011;4691;47.612;7.610;2023-08-17T08:09:40;61.88;;;26.08;;
9306;SDS011;4691;47.612;7.610;2023-08-17T08:12:05;65.10;;;30.02;;
9306;SDS011;4691;47.612;7.610;2023-08-17T08:14:32;67.50;;;28.58;;
9306;SDS011;4691;47.612;7.610;2023-08-17T08:16:58;72.03;;;29.13;;
9306;SDS011;4691;47.612;7.610;2023-08-17T08:19:23;65.10;;;30.63;;
9306;SDS011;4691;47.612;7.610;2023-08-17T08:21:49;62.65;;;29.88;;
9306;SDS011;4691;47.612;7.610;2023-08-17T08:24:14;66.95;;;29.38;;
9306;SDS011;4691;47.612;7.610;2023-08-17T08:26:39;66.43;;;29.15;;
9306;SDS011;4691;47.612;7.610;2023-08-17T08:29:04;54.55;;;26.88;;
9306;SDS011;4691;47.612;7.610;2023-08-17T08:31:30;56.08;;;26.67;;
9306;SDS011;4691;47.612;7.610;2023-08-17T08:33:55;58.63;;;27.75;;
9306;SDS011;4691;47.612;7.610;2023-08-17T08:36:20;48.25;;;25.08;;
9306;SDS011;4691;47.612;7.610;2023-08-17T08:38:46;54.38;;;24.02;;
9306;SDS011;4691;47.612;7.610;2023-08-17T08:41:11;44.80;;;22.48;;
9306;SDS011;4691;47.612;7.610;2023-08-17T08:43:37;47.47;;;23.10;;
9306;SDS011;4691;47.612;7.610;2023-08-17T08:46:03;53.67;;;24.85;;
9306;SDS011;4691;47.612;7.610;2023-08-17T08:48:29;56.03;;;23.83;;
9306;SDS011;4691;47.612;7.610;2023-08-17T08:50:56;46.65;;;23.45;;
9306;SDS011;4691;47.612;7.610;2023-08-17T08:53:30;54.33;;;24.73;;
9306;SDS011;4691;47.612;7.610;2023-08-17T08:55:57;54.20;;;23.52;;
9306;SDS011;4691;47.612;7.610;2023-08-17T08:58:27;49.83;;;23.90;;
9306;SDS011;4691;47.612;7.610;2023-08-17T09:00:54;49.65;;;22.73;;
9306;SDS011;4691;47.612;7.610;2023-08-17T09:03:23;47.42;;;24.30;;
9306;SDS011;4691;47.612;7.610;2023-08-17T09:05:50;50.70;;;23.52;;
9306;SDS011;4691;47.612;7.610;2023-08-17T09:08:20;46.70;;;23.90;;
9306;SDS011;4691;47.612;7.610;2023-08-17T09:10:46;49.67;;;23.52;;
9306;SDS011;4691;47.612;7.610;2023-08-17T09:13:12;45.90;;;23.30;;
9306;SDS011;4691;47.612;7.610;2023-08-17T09:15:37;43.47;;;23.48;;
9306;SDS011;4691;47.612;7.610;2023-08-17T09:18:04;49.40;;;24.40;;
9306;SDS011;4691;47.612;7.610;2023-08-17T09:23:04;53.42;;;26.85;;
9306;SDS011;4691;47.612;7.610;2023-08-17T09:25:30;54.58;;;25.33;;
9306;SDS011;4691;47.612;7.610;2023-08-17T09:27:56;47.80;;;24.50;;
9306;SDS011;4691;47.612;7.610;2023-08-17T09:30:22;43.50;;;24.02;;
9306;SDS011;4691;47.612;7.610;2023-08-17T09:32:47;36.63;;;21.27;;
9306;SDS011;4691;47.612;7.610;2023-08-17T09:35:12;35.90;;;19.75;;
9306;SDS011;4691;47.612;7.610;2023-08-17T09:37:38;43.55;;;21.88;;
9306;SDS011;4691;47.612;7.610;2023-08-17T09:40:03;44.38;;;22.27;;
9306;SDS011;4691;47.612;7.610;2023-08-17T09:42:29;37.65;;;22.77;;
9306;SDS011;4691;47.612;7.610;2023-08-17T09:44:59;33.33;;;20.60;;
9306;SDS011;4691;47.612;7.610;2023-08-17T09:47:26;36.67;;;19.88;;
9306;SDS011;4691;47.612;7.610;2023-08-17T09:49:52;33.25;;;19.83;;
9306;SDS011;4691;47.612;7.610;2023-08-17T09:52:19;38.90;;;19.38;;
9306;SDS011;4691;47.612;7.610;2023-08-17T09:54:46;29.15;;;16.73;;
9306;SDS011;4691;47.612;7.610;2023-08-17T09:57:15;26.50;;;14.70;;
9306;SDS011;4691;47.612;7.610;2023-08-17T09:59:41;28.95;;;16.20;;
9306;SDS011;4691;47.612;7.610;2023-08-17T10:02:19;29.20;;;15.60;;
9306;SDS011;4691;47.612;7.610;2023-08-17T10:04:51;23.40;;;14.57;;
9306;SDS011;4691;47.612;7.610;2023-08-17T10:07:21;21.10;;;13.85;;
9306;SDS011;4691;47.612;7.610;2023-08-17T10:10:02;21.55;;;13.52;;
9306;SDS011;4691;47.612;7.610;2023-08-17T10:12:30;22.73;;;13.45;;
9306;SDS011;4691;47.612;7.610;2023-08-17T10:15:06;20.88;;;13.20;;
9306;SDS011;4691;47.612;7.610;2023-08-17T10:18:22;21.50;;;11.65;;
9306;SDS011;4691;47.612;7.610;2023-08-17T10:20:25;17.13;;;10.90;;
9306;SDS011;4691;47.612;7.610;2023-08-17T10:25:43;14.05;;;9.55;;
9306;SDS011;4691;47.612;7.610;2023-08-17T10:28:12;20.90;;;10.05;;
9306;SDS011;4691;47.612;7.610;2023-08-17T10:30:37;18.55;;;9.07;;
9306;SDS011;4691;47.612;7.610;2023-08-17T10:33:04;14.25;;;9.13;;
9306;SDS011;4691;47.612;7.610;2023-08-17T10:35:30;13.57;;;8.95;;
9306;SDS011;4691;47.612;7.610;2023-08-17T10:37:57;10.80;;;8.27;;
9306;SDS011;4691;47.612;7.610;2023-08-17T10:40:27;12.88;;;8.30;;
9306;SDS011;4691;47.612;7.610;2023-08-17T10:42:53;20.30;;;9.45;;
9306;SDS011;4691;47.612;7.610;2023-08-17T10:47:59;17.25;;;7.57;;
9306;SDS011;4691;47.612;7.610;2023-08-17T10:50:58;16.02;;;8.00;;
9306;SDS011;4691;47.612;7.610;2023-08-17T10:53:24;13.43;;;7.25;;
9306;SDS011;4691;47.612;7.610;2023-08-17T10:55:49;10.75;;;6.95;;
9306;SDS011;4691;47.612;7.610;2023-08-17T10:58:17;12.63;;;6.77;;
9306;SDS011;4691;47.612;7.610;2023-08-17T11:00:42;10.40;;;6.45;;
9306;SDS011;4691;47.612;7.610;2023-08-17T11:03:10;12.63;;;7.43;;
9306;SDS011;4691;47.612;7.610;2023-08-17T11:08:38;16.48;;;7.20;;
9306;SDS011;4691;47.612;7.610;2023-08-17T11:13:37;13.48;;;7.00;;
9306;SDS011;4691;47.612;7.610;2023-08-17T11:16:04;18.83;;;6.40;;
9306;SDS011;4691;47.612;7.610;2023-08-17T11:18:31;16.10;;;7.53;;
9306;SDS011;4691;47.612;7.610;2023-08-17T11:20:57;12.20;;;6.82;;
9306;SDS011;4691;47.612;7.610;2023-08-17T11:23:23;15.70;;;6.50;;
9306;SDS011;4691;47.612;7.610;2023-08-17T11:25:49;11.50;;;6.05;;
9306;SDS011;4691;47.612;7.610;2023-08-17T11:28:17;19.77;;;6.95;;
9306;SDS011;4691;47.612;7.610;2023-08-17T11:30:42;12.68;;;5.95;;
9306;SDS011;4691;47.612;7.610;2023-08-17T11:33:08;13.05;;;5.78;;
9306;SDS011;4691;47.612;7.610;2023-08-17T11:35:38;8.85;;;5.75;;
9306;SDS011;4691;47.612;7.610;2023-08-17T11:38:06;11.75;;;5.90;;
9306;SDS011;4691;47.612;7.610;2023-08-17T11:40:33;11.27;;;5.40;;
9306;SDS011;4691;47.612;7.610;2023-08-17T11:42:59;14.48;;;5.82;;
9306;SDS011;4691;47.612;7.610;2023-08-17T11:45:24;12.68;;;5.72;;
9306;SDS011;4691;47.612;7.610;2023-08-17T11:47:50;14.95;;;7.03;;
9306;SDS011;4691;47.612;7.610;2023-08-17T11:50:16;14.80;;;6.03;;
9306;SDS011;4691;47.612;7.610;2023-08-17T11:52:45;13.30;;;5.95;;
9306;SDS011;4691;47.612;7.610;2023-08-17T11:55:13;16.30;;;6.78;;
9306;SDS011;4691;47.612;7.610;2023-08-17T11:57:45;17.33;;;6.63;;
9306;SDS011;4691;47.612;7.610;2023-08-17T12:00:16;14.73;;;5.85;;
9306;SDS011;4691;47.612;7.610;2023-08-17T12:02:46;11.25;;;5.85;;
9306;SDS011;4691;47.612;7.610;2023-08-17T12:05:12;11.82;;;5.55;;
9306;SDS011;4691;47.612;7.610;2023-08-17T12:07:38;10.27;;;5.47;;
9306;SDS011;4691;47.612;7.610;2023-08-17T12:10:04;13.70;;;5.75;;
9306;SDS011;4691;47.612;7.610;2023-08-17T12:12:30;14.40;;;5.72;;
9306;SDS011;4691;47.612;7.610;2023-08-17T12:15:01;13.90;;;5.90;;
9306;SDS011;4691;47.612;7.610;2023-08-17T12:17:28;13.65;;;5.45;;
9306;SDS011;4691;47.612;7.610;2023-08-17T12:19:54;16.58;;;6.03;;
9306;SDS011;4691;47.612;7.610;2023-08-17T12:22:22;15.55;;;5.90;;
9306;SDS011;4691;47.612;7.610;2023-08-17T12:24:49;15.93;;;5.93;;
9306;SDS011;4691;47.612;7.610;2023-08-17T12:27:15;13.65;;;5.88;;
9306;SDS011;4691;47.612;7.610;2023-08-17T12:29:50;14.55;;;6.35;;
9306;SDS011;4691;47.612;7.610;2023-08-17T12:32:18;14.00;;;6.00;;
9306;SDS011;4691;47.612;7.610;2023-08-17T12:34:44;13.95;;;5.93;;
9306;SDS011;4691;47.612;7.610;2023-08-17T12:37:10;15.77;;;5.93;;
9306;SDS011;4691;47.612;7.610;2023-08-17T12:39:37;16.08;;;5.88;;
9306;SDS011;4691;47.612;7.610;2023-08-17T12:42:03;14.18;;;6.10;;
9306;SDS011;4691;47.612;7.610;2023-08-17T12:44:32;14.55;;;5.53;;
9306;SDS011;4691;47.612;7.610;2023-08-17T12:46:58;13.05;;;5.63;;
9306;SDS011;4691;47.612;7.610;2023-08-17T12:49:24;14.20;;;5.90;;
9306;SDS011;4691;47.612;7.610;2023-08-17T12:51:49;19.92;;;5.90;;
9306;SDS011;4691;47.612;7.610;2023-08-17T12:54:14;15.30;;;5.90;;
9306;SDS011;4691;47.612;7.610;2023-08-17T12:56:40;18.17;;;5.88;;
9306;SDS011;4691;47.612;7.610;2023-08-17T12:59:05;16.73;;;6.75;;
9306;SDS011;4691;47.612;7.610;2023-08-17T13:01:31;18.33;;;6.32;;
9306;SDS011;4691;47.612;7.610;2023-08-17T13:03:56;12.88;;;5.90;;
9306;SDS011;4691;47.612;7.610;2023-08-17T13:06:21;21.98;;;6.43;;
9306;SDS011;4691;47.612;7.610;2023-08-17T13:08:47;18.48;;;6.95;;
9306;SDS011;4691;47.612;7.610;2023-08-17T13:11:15;13.98;;;5.65;;
9306;SDS011;4691;47.612;7.610;2023-08-17T13:16:06;13.63;;;5.73;;
9306;SDS011;4691;47.612;7.610;2023-08-17T13:18:32;15.65;;;5.88;;
9306;SDS011;4691;47.612;7.610;2023-08-17T13:20:57;11.48;;;5.65;;
9306;SDS011;4691;47.612;7.610;2023-08-17T13:23:23;15.27;;;6.25;;
9306;SDS011;4691;47.612;7.610;2023-08-17T13:25:51;12.52;;;6.10;;
9306;SDS011;4691;47.612;7.610;2023-08-17T13:28:16;15.10;;;6.47;;
9306;SDS011;4691;47.612;7.610;2023-08-17T13:30:42;13.30;;;7.18;;
9306;SDS011;4691;47.612;7.610;2023-08-17T13:33:11;14.60;;;6.30;;
9306;SDS011;4691;47.612;7.610;2023-08-17T13:35:37;12.18;;;6.30;;
9306;SDS011;4691;47.612;7.610;2023-08-17T13:38:03;14.57;;;6.28;;
9306;SDS011;4691;47.612;7.610;2023-08-17T13:40:30;13.88;;;6.43;;
9306;SDS011;4691;47.612;7.610;2023-08-17T13:42:56;14.07;;;5.60;;
9306;SDS011;4691;47.612;7.610;2023-08-17T13:45:22;14.98;;;5.70;;
9306;SDS011;4691;47.612;7.610;2023-08-17T13:47:48;10.57;;;5.43;;
9306;SDS011;4691;47.612;7.610;2023-08-17T13:50:14;14.38;;;5.97;;
9306;SDS011;4691;47.612;7.610;2023-08-17T13:52:39;9.98;;;5.60;;
9306;SDS011;4691;47.612;7.610;2023-08-17T13:57:33;12.57;;;5.93;;
9306;SDS011;4691;47.612;7.610;2023-08-17T14:00:04;12.93;;;5.47;;
9306;SDS011;4691;47.612;7.610;2023-08-17T14:02:30;14.27;;;6.13;;
9306;SDS011;4691;47.612;7.610;2023-08-17T14:04:56;15.65;;;5.88;;
9306;SDS011;4691;47.612;7.610;2023-08-17T14:07:22;12.75;;;5.70;;
9306;SDS011;4691;47.612;7.610;2023-08-17T14:09:48;12.82;;;5.32;;
9306;SDS011;4691;47.612;7.610;2023-08-17T14:12:13;11.52;;;5.15;;
9306;SDS011;4691;47.612;7.610;2023-08-17T14:14:39;11.48;;;5.28;;
9306;SDS011;4691;47.612;7.610;2023-08-17T14:17:04;12.70;;;5.15;;
9306;SDS011;4691;47.612;7.610;2023-08-17T14:19:29;12.40;;;5.07;;
9306;SDS011;4691;47.612;7.610;2023-08-17T14:21:55;16.90;;;5.68;;
9306;SDS011;4691;47.612;7.610;2023-08-17T14:24:21;13.70;;;5.50;;
9306;SDS011;4691;47.612;7.610;2023-08-17T14:26:46;20.00;;;6.60;;
9306;SDS011;4691;47.612;7.610;2023-08-17T14:29:12;19.85;;;5.72;;
9306;SDS011;4691;47.612;7.610;2023-08-17T14:31:38;11.27;;;5.72;;
9306;SDS011;4691;47.612;7.610;2023-08-17T14:34:03;15.55;;;7.22;;
9306;SDS011;4691;47.612;7.610;2023-08-17T14:36:29;13.93;;;7.25;;
9306;SDS011;4691;47.612;7.610;2023-08-17T14:38:55;15.88;;;6.70;;
9306;SDS011;4691;47.612;7.610;2023-08-17T14:41:20;14.30;;;7.15;;
9306;SDS011;4691;47.612;7.610;2023-08-17T14:43:45;16.73;;;6.70;;
9306;SDS011;4691;47.612;7.610;2023-08-17T14:46:11;14.32;;;6.22;;
9306;SDS011;4691;47.612;7.610;2023-08-17T14:48:36;20.92;;;6.53;;
9306;SDS011;4691;47.612;7.610;2023-08-17T14:51:02;19.88;;;7.25;;
9306;SDS011;4691;47.612;7.610;2023-08-17T14:53:28;19.42;;;6.93;;
9306;SDS011;4691;47.612;7.610;2023-08-17T14:55:54;18.95;;;7.15;;
9306;SDS011;4691;47.612;7.610;2023-08-17T14:58:20;18.88;;;7.45;;
9306;SDS011;4691;47.612;7.610;2023-08-17T15:00:46;19.75;;;6.20;;
9306;SDS011;4691;47.612;7.610;2023-08-17T15:03:11;13.85;;;6.47;;
9306;SDS011;4691;47.612;7.610;2023-08-17T15:05:36;17.73;;;6.50;;
9306;SDS011;4691;47.612;7.610;2023-08-17T15:08:03;17.05;;;5.75;;
9306;SDS011;4691;47.612;7.610;2023-08-17T15:10:29;14.65;;;6.38;;
9306;SDS011;4691;47.612;7.610;2023-08-17T15:12:54;14.65;;;6.03;;
9306;SDS011;4691;47.612;7.610;2023-08-17T15:15:20;19.63;;;5.25;;
9306;SDS011;4691;47.612;7.610;2023-08-17T15:17:45;13.45;;;4.45;;
9306;SDS011;4691;47.612;7.610;2023-08-17T15:20:11;13.73;;;5.03;;
9306;SDS011;4691;47.612;7.610;2023-08-17T15:22:39;15.80;;;4.28;;